Time;durP1;ratioP1;P1;durP2;ratioP2;P2;SDS_P1;SDS_P2;PMS_P1;PMS_P2;Temp;Humidity;BMP_temperature;BMP_pressure;BME280_temperature;BME280_humidity;BME280_pressure;Samples;Min_cycle;Max_cycle;Signal;HPM_P1;HPM_P2
2022/11/09 00:00:45;;;;;;;8.03;5.73;;;;;;;;;;5083677;28;20244;-30
2022/11/09 00:03:14;;;;;;;7.53;5.77;;;;;;;;;;5076350;28;20193;-30
2022/11/09 00:05:41;;;;;;;10.27;6.47;;;;;;;;;;5076608;28;20216;-30
2022/11/09 00:08:09;;;;;;;8.17;6.40;;;;;;;;;;5090273;28;20193;-32
2022/11/09 00:10:37;;;;;;;8.50;6.17;;;;;;;;;;5084292;28;20333;-30
2022/11/09 00:13:04;;;;;;;7.00;5.60;;;;;;;;;;5079419;28;20201;-33
2022/11/09 00:15:31;;;;;;;8.70;5.87;;;;;;;;;;5087154;28;20305;-34
2022/11/09 00:18:00;;;;;;;10.93;6.93;;;;;;;;;;5071378;28;20221;-33
2022/11/09 00:20:29;;;;;;;10.33;6.53;;;;;;;;;;5080095;28;20217;-34
2022/11/09 00:22:56;;;;;;;7.27;5.70;;;;;;;;;;5078042;28;20198;-32
2022/11/09 00:25:23;;;;;;;8.07;6.03;;;;;;;;;;5089988;28;20196;-28
2022/11/09 00:27:51;;;;;;;8.37;5.40;;;;;;;;;;5085381;28;20273;-32
2022/11/09 00:30:18;;;;;;;9.53;6.10;;;;;;;;;;5072674;28;20221;-32
2022/11/09 00:32:45;;;;;;;10.33;6.10;;;;;;;;;;5078509;28;20216;-31
2022/11/09 00:35:12;;;;;;;8.07;5.60;;;;;;;;;;5086175;28;20201;-34
2022/11/09 00:37:41;;;;;;;8.23;6.20;;;;;;;;;;5074579;28;20209;-31
2022/11/09 00:40:09;;;;;;;6.50;4.97;;;;;;;;;;5090723;28;20220;-30
2022/11/09 00:42:36;;;;;;;5.67;4.83;;;;;;;;;;5081776;28;20201;-30
2022/11/09 00:45:03;;;;;;;6.00;4.80;;;;;;;;;;5080106;28;20193;-30
2022/11/09 00:47:30;;;;;;;6.63;5.10;;;;;;;;;;5087317;28;20212;-30
2022/11/09 00:50:27;;;;;;;8.67;5.80;;;;;;;;;;5070617;28;20193;-31
2022/11/09 00:52:55;;;;;;;6.23;4.97;;;;;;;;;;5080975;28;20291;-32
2022/11/09 00:55:24;;;;;;;9.27;5.87;;;;;;;;;;5077489;28;20296;-31
2022/11/09 00:57:51;;;;;;;11.30;6.13;;;;;;;;;;5073183;28;20205;-28
2022/11/09 01:00:19;;;;;;;6.80;5.23;;;;;;;;;;5078790;28;20319;-31
2022/11/09 01:02:46;;;;;;;6.77;5.27;;;;;;;;;;5077397;28;20464;-32
2022/11/09 01:05:13;;;;;;;7.53;5.17;;;;;;;;;;5079534;28;20243;-33
2022/11/09 01:07:40;;;;;;;7.97;5.23;;;;;;;;;;5086632;28;20291;-32
2022/11/09 01:10:09;;;;;;;8.17;6.07;;;;;;;;;;5070145;28;20217;-30
2022/11/09 01:12:37;;;;;;;8.07;5.90;;;;;;;;;;5071406;28;20215;-32
2022/11/09 01:15:04;;;;;;;9.77;6.70;;;;;;;;;;5081103;28;20215;-30
2022/11/09 01:17:31;;;;;;;10.13;6.37;;;;;;;;;;5079551;28;20209;-30
2022/11/09 01:19:58;;;;;;;8.23;5.97;;;;;;;;;;5084693;28;20223;-28
2022/11/09 01:22:25;;;;;;;6.27;5.20;;;;;;;;;;5082320;28;20204;-32
2022/11/09 01:24:52;;;;;;;8.63;5.20;;;;;;;;;;5073257;28;20205;-29
2022/11/09 01:27:21;;;;;;;7.80;6.57;;;;;;;;;;5077223;28;20209;-32
2022/11/09 01:29:48;;;;;;;5.73;4.73;;;;;;;;;;5083519;28;20281;-32
2022/11/09 01:32:15;;;;;;;10.10;5.40;;;;;;;;;;5078817;28;20203;-32
2022/11/09 01:34:42;;;;;;;8.70;5.67;;;;;;;;;;5079995;28;20212;-32
2022/11/09 01:37:09;;;;;;;6.80;5.27;;;;;;;;;;5090249;28;20277;-31
2022/11/09 01:39:37;;;;;;;8.53;5.33;;;;;;;;;;5089975;28;20284;-30
2022/11/09 01:42:04;;;;;;;6.63;5.37;;;;;;;;;;5085714;28;20316;-32
2022/11/09 01:44:33;;;;;;;5.97;5.10;;;;;;;;;;5076340;28;20301;-32
2022/11/09 01:47:01;;;;;;;8.73;5.50;;;;;;;;;;5080009;28;20205;-31
2022/11/09 01:49:36;;;;;;;7.17;5.03;;;;;;;;;;5076645;28;20268;-31
2022/11/09 01:52:05;;;;;;;6.83;5.47;;;;;;;;;;5075396;28;20223;-30
2022/11/09 01:54:34;;;;;;;8.60;5.93;;;;;;;;;;5083746;28;20200;-29
2022/11/09 01:57:04;;;;;;;7.67;4.90;;;;;;;;;;5088333;28;20243;-32
2022/11/09 01:59:34;;;;;;;7.47;5.43;;;;;;;;;;5075698;28;20229;-32
2022/11/09 02:02:02;;;;;;;6.43;4.93;;;;;;;;;;5082916;28;20220;-32
2022/11/09 02:04:32;;;;;;;6.00;4.70;;;;;;;;;;5083819;28;20208;-29
2022/11/09 02:06:59;;;;;;;5.93;4.60;;;;;;;;;;5078455;28;20245;-31
2022/11/09 02:09:28;;;;;;;8.80;4.80;;;;;;;;;;5088688;28;20201;-31
2022/11/09 02:11:55;;;;;;;7.77;4.97;;;;;;;;;;5093553;28;20228;-30
2022/11/09 02:14:23;;;;;;;8.80;4.77;;;;;;;;;;5079491;28;20207;-29
2022/11/09 02:16:51;;;;;;;6.20;4.50;;;;;;;;;;5083548;28;20196;-31
2022/11/09 02:19:19;;;;;;;6.53;5.10;;;;;;;;;;5082514;28;20209;-29
2022/11/09 02:21:47;;;;;;;7.77;5.17;;;;;;;;;;5082905;28;20243;-28
2022/11/09 02:24:14;;;;;;;5.97;4.37;;;;;;;;;;5093074;28;20201;-31
2022/11/09 02:26:44;;;;;;;6.23;4.53;;;;;;;;;;5093682;28;20215;-29
2022/11/09 02:29:14;;;;;;;6.07;5.03;;;;;;;;;;5084473;28;20283;-35
2022/11/09 02:31:43;;;;;;;7.33;5.10;;;;;;;;;;5091855;28;20319;-30
2022/11/09 02:34:12;;;;;;;6.47;5.07;;;;;;;;;;5078748;28;20201;-30
2022/11/09 02:36:39;;;;;;;8.87;5.63;;;;;;;;;;5078678;28;20262;-35
2022/11/09 02:39:08;;;;;;;6.00;5.10;;;;;;;;;;5092397;28;20673;-30
2022/11/09 02:41:37;;;;;;;7.07;5.33;;;;;;;;;;5093799;28;20220;-30
2022/11/09 02:44:06;;;;;;;7.57;5.17;;;;;;;;;;5091045;28;20207;-28
2022/11/09 02:46:34;;;;;;;6.27;4.77;;;;;;;;;;5082510;28;20213;-32
2022/11/09 02:49:01;;;;;;;7.13;5.20;;;;;;;;;;5096210;28;20201;-33
2022/11/09 02:51:28;;;;;;;8.77;4.40;;;;;;;;;;5091564;28;20351;-33
2022/11/09 02:53:55;;;;;;;7.73;4.60;;;;;;;;;;5081907;28;20207;-30
2022/11/09 02:56:24;;;;;;;7.27;5.43;;;;;;;;;;5084193;28;20200;-32
2022/11/09 02:58:51;;;;;;;7.20;4.30;;;;;;;;;;5096174;28;20224;-30
2022/11/09 03:01:18;;;;;;;4.70;4.17;;;;;;;;;;5089244;28;20348;-31
2022/11/09 03:03:46;;;;;;;6.03;4.57;;;;;;;;;;5095048;28;20449;-32
2022/11/09 03:06:13;;;;;;;5.47;4.17;;;;;;;;;;5098307;28;20211;-31
2022/11/09 03:08:40;;;;;;;8.13;4.83;;;;;;;;;;5101166;28;20219;-34
2022/11/09 03:11:07;;;;;;;4.60;3.93;;;;;;;;;;5107681;28;20315;-31
2022/11/09 03:13:36;;;;;;;4.70;4.20;;;;;;;;;;5100220;28;20749;-32
2022/11/09 03:16:06;;;;;;;8.20;5.00;;;;;;;;;;5106662;28;20200;-33
2022/11/09 03:18:33;;;;;;;7.43;4.70;;;;;;;;;;5107438;28;20204;-32
2022/11/09 03:21:03;;;;;;;8.67;4.70;;;;;;;;;;5108023;27;20284;-31
2022/11/09 03:23:31;;;;;;;7.50;4.57;;;;;;;;;;5115037;28;20211;-32
2022/11/09 03:25:58;;;;;;;6.77;4.37;;;;;;;;;;5108717;28;20267;-29
2022/11/09 03:28:25;;;;;;;7.93;4.70;;;;;;;;;;5110275;28;20288;-32
2022/11/09 03:30:54;;;;;;;7.33;4.53;;;;;;;;;;5113368;28;20216;-31
2022/11/09 03:33:21;;;;;;;5.87;4.50;;;;;;;;;;5109307;28;20288;-32
2022/11/09 03:35:48;;;;;;;6.37;4.93;;;;;;;;;;5100647;27;20204;-30
2022/11/09 03:38:15;;;;;;;5.70;4.27;;;;;;;;;;5094472;28;20197;-29
2022/11/09 03:40:43;;;;;;;5.30;4.43;;;;;;;;;;5114138;28;20223;-29
2022/11/09 03:43:10;;;;;;;6.87;4.33;;;;;;;;;;5116718;28;20264;-34
2022/11/09 03:45:38;;;;;;;6.63;4.53;;;;;;;;;;5108497;28;20492;-30
2022/11/09 03:48:06;;;;;;;5.30;3.93;;;;;;;;;;5095877;28;20295;-31
2022/11/09 03:50:35;;;;;;;8.63;4.57;;;;;;;;;;5108443;28;20222;-28
2022/11/09 03:53:02;;;;;;;5.87;4.53;;;;;;;;;;5115893;28;20202;-30
2022/11/09 03:55:30;;;;;;;4.93;4.27;;;;;;;;;;5097662;28;20292;-30
2022/11/09 03:57:57;;;;;;;4.87;4.13;;;;;;;;;;5099722;28;20199;-29
2022/11/09 04:00:24;;;;;;;5.90;4.37;;;;;;;;;;5103584;28;20307;-31
2022/11/09 04:02:52;;;;;;;5.43;4.40;;;;;;;;;;5104850;28;20291;-29
2022/11/09 04:05:21;;;;;;;5.30;4.10;;;;;;;;;;5501804;22;20203;-31
2022/11/09 04:07:48;;;;;;;5.93;4.33;;;;;;;;;;5058720;28;20319;-32
2022/11/09 04:10:15;;;;;;;7.70;4.50;;;;;;;;;;5049544;28;20320;-32
2022/11/09 04:12:43;;;;;;;5.63;4.80;;;;;;;;;;5067735;28;20227;-30
2022/11/09 04:15:10;;;;;;;7.73;4.43;;;;;;;;;;5054265;28;20212;-30
2022/11/09 04:17:37;;;;;;;8.77;4.60;;;;;;;;;;5041445;28;20216;-33
2022/11/09 04:20:05;;;;;;;10.17;4.70;;;;;;;;;;5057173;28;20232;-31
2022/11/09 04:22:34;;;;;;;7.27;4.90;;;;;;;;;;5059941;28;20201;-31
2022/11/09 04:25:01;;;;;;;7.43;4.30;;;;;;;;;;5062554;28;20193;-31
2022/11/09 04:27:29;;;;;;;6.10;4.20;;;;;;;;;;5069938;28;20227;-31
2022/11/09 04:29:56;;;;;;;5.30;4.33;;;;;;;;;;5059646;28;20211;-31
2022/11/09 04:32:23;;;;;;;5.60;4.17;;;;;;;;;;5068996;28;20257;-31
2022/11/09 04:34:51;;;;;;;5.53;4.27;;;;;;;;;;5066231;28;20206;-32
2022/11/09 04:37:18;;;;;;;6.70;4.33;;;;;;;;;;5056330;28;20286;-31
2022/11/09 04:39:46;;;;;;;5.63;4.10;;;;;;;;;;5059303;28;20221;-32
2022/11/09 04:42:13;;;;;;;5.43;4.30;;;;;;;;;;5061618;28;20211;-32
2022/11/09 04:44:40;;;;;;;6.23;4.90;;;;;;;;;;5057975;28;20215;-31
2022/11/09 04:47:07;;;;;;;5.53;4.20;;;;;;;;;;5065258;28;20203;-32
2022/11/09 04:49:35;;;;;;;5.70;4.50;;;;;;;;;;5065260;28;20208;-34
2022/11/09 04:52:02;;;;;;;6.33;4.00;;;;;;;;;;5056651;28;20221;-31
2022/11/09 04:54:29;;;;;;;6.07;4.80;;;;;;;;;;5062613;28;20198;-32
2022/11/09 04:56:57;;;;;;;6.47;4.73;;;;;;;;;;5070181;28;20197;-34
2022/11/09 04:59:24;;;;;;;6.67;4.10;;;;;;;;;;5055888;28;20225;-32
2022/11/09 05:01:52;;;;;;;5.53;4.93;;;;;;;;;;5063973;28;20227;-33
2022/11/09 05:04:19;;;;;;;7.13;5.13;;;;;;;;;;5069711;28;20205;-31
2022/11/09 05:06:46;;;;;;;5.50;4.63;;;;;;;;;;5054887;28;20225;-31
2022/11/09 05:09:13;;;;;;;5.10;4.33;;;;;;;;;;5050606;28;20202;-31
2022/11/09 05:11:40;;;;;;;6.77;4.10;;;;;;;;;;5069837;28;20227;-34
2022/11/09 05:14:09;;;;;;;4.87;4.33;;;;;;;;;;5061077;28;20214;-31
2022/11/09 05:16:36;;;;;;;5.27;4.30;;;;;;;;;;5057939;28;20296;-32
2022/11/09 05:19:03;;;;;;;5.83;4.50;;;;;;;;;;5069040;28;20208;-35
2022/11/09 05:21:30;;;;;;;9.10;5.23;;;;;;;;;;5058036;28;20226;-32
2022/11/09 05:23:59;;;;;;;6.43;4.97;;;;;;;;;;5066143;28;20296;-34
2022/11/09 05:26:30;;;;;;;6.70;4.33;;;;;;;;;;5069387;28;20201;-32
2022/11/09 05:28:57;;;;;;;8.43;4.57;;;;;;;;;;5059700;28;20194;-33
2022/11/09 05:31:26;;;;;;;6.90;4.60;;;;;;;;;;5052076;28;20281;-29
2022/11/09 05:33:54;;;;;;;5.23;4.77;;;;;;;;;;5063542;28;20208;-35
2022/11/09 05:36:22;;;;;;;6.20;4.40;;;;;;;;;;5051142;28;20262;-32
2022/11/09 05:38:49;;;;;;;5.03;4.50;;;;;;;;;;5059901;28;20201;-31
2022/11/09 05:41:17;;;;;;;9.10;4.63;;;;;;;;;;5051951;28;20238;-32
2022/11/09 05:43:45;;;;;;;5.70;5.13;;;;;;;;;;5061776;28;20217;-33
2022/11/09 05:46:13;;;;;;;7.97;6.30;;;;;;;;;;5058106;28;20255;-31
2022/11/09 05:48:42;;;;;;;9.33;5.70;;;;;;;;;;5049596;28;20301;-33
2022/11/09 05:51:10;;;;;;;7.13;5.10;;;;;;;;;;5052000;28;20224;-32
2022/11/09 05:53:37;;;;;;;7.00;5.37;;;;;;;;;;5064873;28;20209;-32
2022/11/09 05:56:05;;;;;;;5.07;4.50;;;;;;;;;;5069152;28;20207;-34
2022/11/09 05:58:35;;;;;;;8.40;4.80;;;;;;;;;;5069067;28;20301;-32
2022/11/09 06:01:03;;;;;;;5.97;5.03;;;;;;;;;;5064925;28;20251;-31
2022/11/09 06:03:30;;;;;;;14.43;4.97;;;;;;;;;;5067803;28;20212;-34
2022/11/09 06:06:00;;;;;;;5.20;4.47;;;;;;;;;;5063055;28;20264;-33
2022/11/09 06:08:27;;;;;;;5.70;5.20;;;;;;;;;;5059775;28;20197;-36
2022/11/09 06:10:58;;;;;;;8.13;5.13;;;;;;;;;;5064368;28;20227;-33
2022/11/09 06:13:25;;;;;;;7.87;5.20;;;;;;;;;;5062677;28;20213;-32
2022/11/09 06:15:55;;;;;;;6.87;5.20;;;;;;;;;;5057400;28;20202;-32
2022/11/09 06:18:23;;;;;;;8.17;5.27;;;;;;;;;;5067729;28;20198;-34
2022/11/09 06:20:53;;;;;;;7.17;5.07;;;;;;;;;;5063307;28;20316;-30
2022/11/09 06:23:24;;;;;;;8.00;5.10;;;;;;;;;;5065902;28;20331;-36
2022/11/09 06:25:52;;;;;;;7.67;5.00;;;;;;;;;;5058005;28;20293;-29
2022/11/09 06:28:19;;;;;;;8.17;5.60;;;;;;;;;;5061991;28;20302;-32
2022/11/09 06:30:46;;;;;;;8.20;5.13;;;;;;;;;;5056929;28;20221;-33
2022/11/09 06:33:13;;;;;;;5.67;4.87;;;;;;;;;;5060431;28;20228;-35
2022/11/09 06:35:40;;;;;;;8.70;4.80;;;;;;;;;;5051447;28;20221;-32
2022/11/09 06:38:08;;;;;;;7.20;5.03;;;;;;;;;;5050338;28;20229;-32
2022/11/09 06:40:36;;;;;;;10.73;5.17;;;;;;;;;;5060965;28;20233;-32
2022/11/09 06:43:04;;;;;;;7.90;4.37;;;;;;;;;;5065453;28;20204;-33
2022/11/09 06:45:32;;;;;;;8.37;5.37;;;;;;;;;;5057584;28;20310;-32
2022/11/09 06:48:00;;;;;;;8.30;5.80;;;;;;;;;;5060836;28;20198;-35
2022/11/09 06:50:27;;;;;;;9.07;5.70;;;;;;;;;;5059071;28;20221;-33
2022/11/09 06:52:56;;;;;;;9.07;5.60;;;;;;;;;;5056298;28;20212;-33
2022/11/09 06:55:23;;;;;;;9.17;5.87;;;;;;;;;;5055634;28;20209;-31
2022/11/09 06:57:52;;;;;;;10.40;6.67;;;;;;;;;;5058646;28;20209;-33
2022/11/09 07:00:20;;;;;;;8.30;5.70;;;;;;;;;;5066069;28;20228;-33
2022/11/09 07:02:47;;;;;;;10.20;6.50;;;;;;;;;;5054770;28;20300;-30
2022/11/09 07:05:14;;;;;;;8.47;5.83;;;;;;;;;;5052223;28;20202;-33
2022/11/09 07:07:41;;;;;;;6.47;5.63;;;;;;;;;;5059920;28;20201;-33
2022/11/09 07:10:09;;;;;;;7.10;5.20;;;;;;;;;;5054792;28;20221;-32
2022/11/09 07:12:36;;;;;;;7.00;5.80;;;;;;;;;;5064138;28;20296;-34
2022/11/09 07:15:05;;;;;;;11.77;9.17;;;;;;;;;;5061133;28;20202;-29
2022/11/09 07:17:32;;;;;;;7.13;5.27;;;;;;;;;;5056877;28;20534;-32
2022/11/09 07:19:59;;;;;;;6.23;5.00;;;;;;;;;;5066267;28;20396;-34
2022/11/09 07:22:28;;;;;;;8.17;5.77;;;;;;;;;;5067059;28;20201;-31
2022/11/09 07:24:55;;;;;;;7.67;5.43;;;;;;;;;;5058635;28;20207;-32
2022/11/09 07:27:22;;;;;;;6.10;5.50;;;;;;;;;;5073602;28;20209;-30
2022/11/09 07:29:49;;;;;;;8.63;5.57;;;;;;;;;;5065100;28;20213;-30
2022/11/09 07:32:18;;;;;;;6.93;5.50;;;;;;;;;;5058505;28;20297;-30
2022/11/09 07:34:46;;;;;;;7.37;6.10;;;;;;;;;;5053739;28;20214;-36
2022/11/09 07:37:13;;;;;;;9.67;6.37;;;;;;;;;;5062731;28;20202;-31
2022/11/09 07:39:40;;;;;;;6.50;5.70;;;;;;;;;;5053506;28;20202;-32
2022/11/09 07:42:08;;;;;;;8.87;5.83;;;;;;;;;;5049612;28;20250;-31
2022/11/09 07:44:35;;;;;;;6.93;5.90;;;;;;;;;;5062694;28;20205;-34
2022/11/09 07:47:02;;;;;;;6.00;5.10;;;;;;;;;;5057445;28;20208;-31
2022/11/09 07:49:30;;;;;;;9.90;5.57;;;;;;;;;;5068512;28;20208;-35
2022/11/09 07:51:57;;;;;;;8.83;5.77;;;;;;;;;;5058197;28;20241;-33
2022/11/09 07:54:25;;;;;;;6.57;5.67;;;;;;;;;;5053544;28;20683;-32
2022/11/09 07:56:52;;;;;;;10.67;6.93;;;;;;;;;;5054161;28;20335;-29
2022/11/09 07:59:20;;;;;;;6.97;6.17;;;;;;;;;;5054311;28;20198;-31
2022/11/09 08:01:47;;;;;;;9.40;5.60;;;;;;;;;;5067249;28;20225;-31
2022/11/09 08:04:14;;;;;;;7.63;5.23;;;;;;;;;;5070661;28;20262;-29
2022/11/09 08:06:43;;;;;;;10.50;6.90;;;;;;;;;;5052548;28;20218;-31
2022/11/09 08:09:10;;;;;;;7.87;5.97;;;;;;;;;;5055851;28;20218;-29
2022/11/09 08:11:37;;;;;;;9.60;6.37;;;;;;;;;;5054193;28;20231;-33
2022/11/09 08:14:04;;;;;;;11.10;7.10;;;;;;;;;;5053596;28;20229;-33
2022/11/09 08:16:31;;;;;;;10.47;6.77;;;;;;;;;;5063971;28;20213;-32
2022/11/09 08:18:58;;;;;;;11.73;6.47;;;;;;;;;;5066080;28;20205;-34
2022/11/09 08:21:36;;;;;;;9.23;6.40;;;;;;;;;;5062969;28;20235;-30
2022/11/09 08:24:05;;;;;;;11.83;6.80;;;;;;;;;;5067760;28;20229;-30
2022/11/09 08:26:32;;;;;;;9.43;6.03;;;;;;;;;;5070855;28;20267;-31
2022/11/09 08:28:59;;;;;;;7.97;6.50;;;;;;;;;;5066676;28;20232;-31
2022/11/09 08:31:26;;;;;;;8.77;6.73;;;;;;;;;;5066883;28;20224;-33
2022/11/09 08:33:54;;;;;;;10.70;7.73;;;;;;;;;;5068708;28;20205;-31
2022/11/09 08:36:21;;;;;;;12.67;8.23;;;;;;;;;;5053999;28;20206;-31
2022/11/09 08:38:48;;;;;;;9.53;6.83;;;;;;;;;;5058734;28;20206;-32
2022/11/09 08:41:16;;;;;;;8.80;6.53;;;;;;;;;;5073562;28;20228;-32
2022/11/09 08:43:43;;;;;;;17.13;6.70;;;;;;;;;;5071395;28;20228;-30
2022/11/09 08:46:11;;;;;;;11.87;6.87;;;;;;;;;;5065247;28;20240;-33
2022/11/09 08:48:38;;;;;;;8.37;6.30;;;;;;;;;;5072307;28;20208;-30
2022/11/09 08:51:05;;;;;;;10.07;6.00;;;;;;;;;;5059457;28;20221;-33
2022/11/09 08:53:32;;;;;;;8.90;6.10;;;;;;;;;;5057441;28;20212;-35
2022/11/09 08:55:59;;;;;;;8.93;6.70;;;;;;;;;;5056945;28;20288;-31
2022/11/09 08:58:28;;;;;;;8.27;6.23;;;;;;;;;;5063066;28;20236;-33
2022/11/09 09:00:55;;;;;;;9.70;6.23;;;;;;;;;;5067153;28;20225;-31
2022/11/09 09:03:22;;;;;;;9.67;7.33;;;;;;;;;;5066628;28;20205;-30
2022/11/09 09:05:50;;;;;;;9.40;6.33;;;;;;;;;;5059854;28;20604;-28
2022/11/09 09:08:20;;;;;;;8.17;5.83;;;;;;;;;;5051892;28;20230;-27
2022/11/09 09:10:47;;;;;;;8.90;6.53;;;;;;;;;;5045223;28;20222;-31
2022/11/09 09:13:14;;;;;;;7.37;5.03;;;;;;;;;;5056155;28;20205;-35
2022/11/09 09:15:43;;;;;;;7.63;6.20;;;;;;;;;;5063809;28;20248;-32
2022/11/09 09:18:10;;;;;;;6.43;5.63;;;;;;;;;;5054830;28;20204;-31
2022/11/09 09:20:37;;;;;;;7.70;6.07;;;;;;;;;;5046569;28;20227;-32
2022/11/09 09:23:04;;;;;;;9.27;5.97;;;;;;;;;;5068116;28;20198;-31
2022/11/09 09:25:31;;;;;;;8.67;5.73;;;;;;;;;;5059866;28;20205;-31
2022/11/09 09:27:59;;;;;;;8.50;5.20;;;;;;;;;;5049458;28;20208;-33
2022/11/09 09:30:26;;;;;;;8.00;5.27;;;;;;;;;;5054826;28;20223;-33
2022/11/09 09:32:58;;;;;;;8.53;5.27;;;;;;;;;;5047507;28;20212;-30
2022/11/09 09:35:25;;;;;;;10.23;6.20;;;;;;;;;;5054062;28;20234;-33
2022/11/09 09:37:52;;;;;;;9.33;5.60;;;;;;;;;;5051342;28;20210;-33
2022/11/09 09:40:24;;;;;;;6.27;4.43;;;;;;;;;;5055687;28;20232;-31
2022/11/09 09:42:52;;;;;;;5.73;4.00;;;;;;;;;;5057263;28;20208;-29
2022/11/09 09:45:20;;;;;;;7.63;3.50;;;;;;;;;;5049891;28;20201;-33
2022/11/09 09:47:50;;;;;;;5.70;3.40;;;;;;;;;;5042660;28;20280;-31
2022/11/09 09:50:21;;;;;;;3.73;3.33;;;;;;;;;;5055204;28;20588;-32
2022/11/09 09:52:50;;;;;;;5.13;3.80;;;;;;;;;;5052684;28;20222;-30
2022/11/09 09:55:20;;;;;;;8.30;4.90;;;;;;;;;;5047288;28;20205;-31
2022/11/09 09:57:50;;;;;;;5.17;3.93;;;;;;;;;;5050743;28;20213;-31
2022/11/09 10:00:20;;;;;;;7.50;4.67;;;;;;;;;;5059931;28;20309;-31
2022/11/09 10:02:48;;;;;;;5.67;4.10;;;;;;;;;;5057055;28;20231;-31
2022/11/09 10:05:16;;;;;;;6.77;4.20;;;;;;;;;;5059686;28;20202;-31
2022/11/09 10:07:49;;;;;;;7.33;5.20;;;;;;;;;;5058321;28;20464;-29
2022/11/09 10:10:27;;;;;;;6.87;5.40;;;;;;;;;;5053193;28;20217;-30
2022/11/09 10:13:01;;;;;;;5.50;4.37;;;;;;;;;;5049366;28;20234;-31
2022/11/09 10:15:32;;;;;;;6.30;4.47;;;;;;;;;;5052662;28;20207;-31
2022/11/09 10:18:03;;;;;;;5.70;4.27;;;;;;;;;;5065786;28;20200;-31
2022/11/09 10:20:35;;;;;;;7.93;4.60;;;;;;;;;;5056998;28;20232;-34
2022/11/09 10:23:16;;;;;;;6.47;4.63;;;;;;;;;;5061633;28;20204;-29
2022/11/09 10:25:44;;;;;;;7.43;4.53;;;;;;;;;;5053787;28;20202;-32
2022/11/09 10:28:14;;;;;;;6.33;5.23;;;;;;;;;;5056742;28;20419;-35
2022/11/09 10:30:42;;;;;;;7.13;4.83;;;;;;;;;;5063940;28;20228;-31
2022/11/09 10:33:14;;;;;;;6.00;4.57;;;;;;;;;;5060356;28;20197;-32
2022/11/09 10:35:44;;;;;;;5.70;3.67;;;;;;;;;;5057532;28;20261;-31
2022/11/09 10:38:15;;;;;;;4.30;2.77;;;;;;;;;;5050844;28;20221;-34
2022/11/09 10:40:45;;;;;;;3.30;2.10;;;;;;;;;;5053118;28;20293;-34
2022/11/09 10:43:13;;;;;;;5.63;3.07;;;;;;;;;;5064585;28;20211;-29
2022/11/09 10:45:41;;;;;;;5.77;2.97;;;;;;;;;;5075701;28;20300;-30
2022/11/09 10:48:09;;;;;;;3.17;2.03;;;;;;;;;;5072711;28;20197;-32
2022/11/09 10:50:38;;;;;;;4.03;2.40;;;;;;;;;;5055736;28;20226;-30
2022/11/09 10:53:10;;;;;;;1.97;1.63;;;;;;;;;;5067076;28;20204;-32
2022/11/09 10:55:39;;;;;;;1.30;1.20;;;;;;;;;;5062489;28;20209;-33
2022/11/09 10:58:16;;;;;;;1.50;1.40;;;;;;;;;;5065924;28;20229;-31
2022/11/09 11:00:55;;;;;;;2.23;1.33;;;;;;;;;;5048032;28;20304;-33
2022/11/09 11:03:24;;;;;;;2.03;1.87;;;;;;;;;;5051595;28;20194;-31
2022/11/09 11:05:57;;;;;;;2.30;2.00;;;;;;;;;;5054957;28;20206;-31
2022/11/09 11:08:42;;;;;;;2.53;2.33;;;;;;;;;;5054076;28;20197;-31
2022/11/09 11:11:16;;;;;;;2.50;2.30;;;;;;;;;;5072114;28;20304;-28
2022/11/09 11:13:43;;;;;;;3.27;2.50;;;;;;;;;;5072670;28;20219;-31
2022/11/09 11:16:15;;;;;;;2.10;2.00;;;;;;;;;;5051835;28;20297;-32
2022/11/09 11:18:45;;;;;;;2.80;2.60;;;;;;;;;;5046236;28;20237;-32
2022/11/09 11:21:14;;;;;;;3.73;2.37;;;;;;;;;;5056406;28;20232;-32
2022/11/09 11:23:42;;;;;;;3.23;2.27;;;;;;;;;;5058737;28;20296;-32
2022/11/09 11:26:33;;;;;;;2.50;1.90;;;;;;;;;;5057885;28;20201;-33
2022/11/09 11:29:05;;;;;;;2.57;2.33;;;;;;;;;;5059874;28;20217;-29
2022/11/09 11:31:33;;;;;;;2.87;2.27;;;;;;;;;;5064318;28;20231;-30
2022/11/09 11:34:00;;;;;;;3.33;2.70;;;;;;;;;;5061763;28;20198;-32
2022/11/09 11:36:31;;;;;;;3.00;2.10;;;;;;;;;;5052764;28;20288;-31
2022/11/09 11:39:04;;;;;;;4.00;2.40;;;;;;;;;;5057963;28;20185;-31
2022/11/09 11:41:52;;;;;;;4.47;3.00;;;;;;;;;;5061970;28;20379;-32
2022/11/09 11:44:27;;;;;;;3.50;2.70;;;;;;;;;;5053648;28;20272;-31
2022/11/09 11:46:59;;;;;;;4.13;2.67;;;;;;;;;;5058533;28;20202;-31
2022/11/09 11:49:32;;;;;;;3.47;2.87;;;;;;;;;;5054776;28;20197;-31
2022/11/09 11:52:03;;;;;;;5.97;2.50;;;;;;;;;;5052987;28;20220;-33
2022/11/09 11:54:34;;;;;;;4.20;2.60;;;;;;;;;;5059768;28;20296;-32
2022/11/09 11:57:13;;;;;;;2.80;2.50;;;;;;;;;;5051860;28;20213;-31
2022/11/09 11:59:48;;;;;;;5.13;3.03;;;;;;;;;;5055477;28;20205;-33
2022/11/09 12:02:27;;;;;;;2.57;2.37;;;;;;;;;;5056177;28;20304;-31
2022/11/09 12:05:02;;;;;;;3.73;2.50;;;;;;;;;;5043211;28;20212;-33
2022/11/09 12:07:34;;;;;;;2.60;2.40;;;;;;;;;;5050797;28;20213;-31
2022/11/09 12:10:20;;;;;;;3.20;2.73;;;;;;;;;;5066259;28;20217;-33
2022/11/09 12:12:51;;;;;;;3.00;2.53;;;;;;;;;;5065698;28;20284;-32
2022/11/09 12:15:24;;;;;;;3.20;2.77;;;;;;;;;;5056701;28;20202;-32
2022/11/09 12:17:57;;;;;;;5.30;2.73;;;;;;;;;;5051151;28;20187;-32
2022/11/09 12:20:27;;;;;;;3.17;2.40;;;;;;;;;;5063854;28;20225;-32
2022/11/09 12:23:00;;;;;;;4.33;2.70;;;;;;;;;;5061130;28;20221;-28
2022/11/09 12:25:30;;;;;;;3.20;2.90;;;;;;;;;;5060472;28;20186;-33
2022/11/09 12:28:03;;;;;;;2.60;2.40;;;;;;;;;;5070707;28;20213;-31
2022/11/09 12:30:40;;;;;;;3.40;2.83;;;;;;;;;;5062769;28;20256;-33
2022/11/09 12:33:09;;;;;;;3.33;2.83;;;;;;;;;;5050534;28;20194;-32
2022/11/09 12:35:38;;;;;;;4.03;3.00;;;;;;;;;;5055851;28;20207;-33
2022/11/09 12:38:10;;;;;;;2.93;2.50;;;;;;;;;;5064485;28;20216;-33
2022/11/09 12:40:39;;;;;;;5.33;3.10;;;;;;;;;;5054811;28;20312;-31
2022/11/09 12:43:11;;;;;;;4.20;2.67;;;;;;;;;;5064924;28;20229;-33
2022/11/09 12:45:40;;;;;;;3.47;2.57;;;;;;;;;;5062114;28;20212;-31
2022/11/09 12:48:12;;;;;;;3.73;2.63;;;;;;;;;;5065218;28;20209;-33
2022/11/09 12:50:40;;;;;;;2.60;2.40;;;;;;;;;;5056861;28;20290;-30
2022/11/09 12:53:08;;;;;;;3.97;2.87;;;;;;;;;;5061895;28;20216;-29
2022/11/09 12:55:43;;;;;;;3.87;2.90;;;;;;;;;;5061222;28;20206;-31
2022/11/09 12:58:20;;;;;;;3.23;2.53;;;;;;;;;;5050366;28;20336;-29
2022/11/09 13:00:49;;;;;;;4.63;2.83;;;;;;;;;;5056528;28;20290;-31
2022/11/09 13:03:20;;;;;;;3.33;2.77;;;;;;;;;;5056953;28;20305;-31
2022/11/09 13:05:48;;;;;;;3.00;2.53;;;;;;;;;;5060413;28;20217;-34
2022/11/09 13:08:18;;;;;;;2.77;2.57;;;;;;;;;;5052533;28;20202;-30
2022/11/09 13:10:45;;;;;;;2.97;2.67;;;;;;;;;;5067724;28;20232;-34
2022/11/09 13:13:22;;;;;;;6.23;2.90;;;;;;;;;;5061847;28;20198;-33
2022/11/09 13:16:20;;;;;;;2.80;2.50;;;;;;;;;;5057610;28;20664;-33
2022/11/09 13:18:52;;;;;;;2.97;2.50;;;;;;;;;;4984299;28;20212;-33
2022/11/09 13:21:33;;;;;;;2.23;2.10;;;;;;;;;;5047645;28;20226;-30
2022/11/09 13:24:11;;;;;;;11.57;3.20;;;;;;;;;;5056444;28;20283;-29
2022/11/09 13:27:00;;;;;;;3.47;2.10;;;;;;;;;;5051443;28;20194;-33
2022/11/09 13:29:29;;;;;;;5.40;2.63;;;;;;;;;;5050201;28;20286;-33
2022/11/09 13:32:04;;;;;;;2.87;2.60;;;;;;;;;;5059219;28;20252;-31
2022/11/09 13:34:49;;;;;;;3.60;2.70;;;;;;;;;;5067755;28;20227;-33
2022/11/09 13:37:35;;;;;;;4.73;2.50;;;;;;;;;;5050209;28;20297;-34
2022/11/09 13:40:03;;;;;;;4.50;2.83;;;;;;;;;;5049592;28;20306;-32
2022/11/09 13:42:31;;;;;;;2.87;2.40;;;;;;;;;;5064918;28;20235;-32
2022/11/09 13:45:13;;;;;;;3.80;2.60;;;;;;;;;;5055351;28;20230;-33
2022/11/09 13:47:50;;;;;;;2.60;2.40;;;;;;;;;;5061832;28;20205;-35
2022/11/09 13:50:20;;;;;;;3.63;2.47;;;;;;;;;;5061510;28;20225;-32
2022/11/09 13:52:51;;;;;;;3.13;2.50;;;;;;;;;;5053032;28;20205;-30
2022/11/09 13:55:31;;;;;;;4.83;2.53;;;;;;;;;;5064947;28;20572;-32
2022/11/09 13:58:00;;;;;;;3.20;2.90;;;;;;;;;;5070112;28;20215;-32
2022/11/09 14:00:28;;;;;;;3.63;3.00;;;;;;;;;;5057248;28;20222;-28
2022/11/09 14:03:02;;;;;;;3.40;2.53;;;;;;;;;;5061156;28;20217;-31
2022/11/09 14:05:32;;;;;;;3.30;2.80;;;;;;;;;;5043527;28;20205;-30
2022/11/09 14:08:01;;;;;;;3.03;2.83;;;;;;;;;;5058161;28;20225;-30
2022/11/09 14:10:46;;;;;;;3.23;2.80;;;;;;;;;;5055416;28;20218;-29
2022/11/09 14:13:33;;;;;;;3.67;2.90;;;;;;;;;;5056351;28;20193;-30
2022/11/09 14:16:05;;;;;;;3.90;2.67;;;;;;;;;;5050293;28;20201;-33
2022/11/09 14:18:37;;;;;;;4.10;2.80;;;;;;;;;;5064962;28;20427;-31
2022/11/09 14:21:08;;;;;;;4.07;2.60;;;;;;;;;;5054120;28;20222;-32
2022/11/09 14:23:35;;;;;;;2.90;2.60;;;;;;;;;;5064073;28;20221;-33
2022/11/09 14:26:07;;;;;;;2.77;2.57;;;;;;;;;;5066389;28;20296;-34
2022/11/09 14:28:36;;;;;;;3.30;2.87;;;;;;;;;;5073671;28;20194;-32
2022/11/09 14:31:03;;;;;;;6.03;3.13;;;;;;;;;;5074066;28;20225;-31
2022/11/09 14:33:34;;;;;;;3.20;2.57;;;;;;;;;;5055121;28;20311;-34
2022/11/09 14:36:02;;;;;;;4.90;3.80;;;;;;;;;;5053825;28;20299;-32
2022/11/09 14:38:32;;;;;;;4.23;3.50;;;;;;;;;;5054596;28;20279;-33
2022/11/09 14:40:59;;;;;;;6.20;3.17;;;;;;;;;;5064600;28;20221;-30
2022/11/09 14:43:28;;;;;;;3.33;3.03;;;;;;;;;;5064201;28;20287;-32
2022/11/09 14:45:56;;;;;;;3.10;2.80;;;;;;;;;;5051526;28;20285;-32
2022/11/09 14:48:25;;;;;;;3.20;2.90;;;;;;;;;;5056467;28;20202;-32
2022/11/09 14:50:52;;;;;;;3.87;3.10;;;;;;;;;;5060368;28;20563;-29
2022/11/09 14:53:23;;;;;;;4.23;3.03;;;;;;;;;;5061328;28;20197;-31
2022/11/09 14:55:55;;;;;;;4.47;3.33;;;;;;;;;;5063584;28;20268;-33